createdAt,value
2023-02-27T00:01:03.067Z,3.00
2023-02-27T00:03:31.574Z,4.00
2023-02-27T00:06:00.043Z,3.20
2023-02-27T00:08:29.867Z,3.30
2023-02-27T00:10:58.679Z,3.23
2023-02-27T00:13:27.103Z,3.47
2023-02-27T00:15:56.428Z,3.43
2023-02-27T00:18:25.256Z,3.30
2023-02-27T00:20:53.692Z,3.30
2023-02-27T00:23:22.161Z,4.00
2023-02-27T00:25:54.890Z,4.07
2023-02-27T00:28:23.824Z,4.10
2023-02-27T00:30:52.266Z,5.20
2023-02-27T00:33:20.789Z,5.27
2023-02-27T00:35:57.385Z,5.07
2023-02-27T00:38:26.349Z,5.00
2023-02-27T00:40:56.324Z,5.20
2023-02-27T00:43:24.773Z,4.83
2023-02-27T00:45:53.086Z,6.30
2023-02-27T00:48:21.793Z,5.77
2023-02-27T00:50:51.934Z,5.47
2023-02-27T00:53:20.434Z,6.07
2023-02-27T00:55:49.093Z,5.57
2023-02-27T00:58:19.376Z,6.10
2023-02-27T01:00:47.969Z,6.20
2023-02-27T01:03:16.368Z,6.73
2023-02-27T01:05:44.715Z,6.30
2023-02-27T01:08:13.285Z,6.70
2023-02-27T01:10:41.536Z,6.93
2023-02-27T01:13:11.281Z,7.03
2023-02-27T01:15:41.067Z,5.77
2023-02-27T01:18:09.387Z,5.63
2023-02-27T01:20:37.782Z,6.10
2023-02-27T01:23:06.350Z,6.13
2023-02-27T01:25:34.856Z,5.97
2023-02-27T01:28:03.303Z,5.80
2023-02-27T01:30:31.639Z,6.77
2023-02-27T01:33:01.451Z,6.17
2023-02-27T01:35:29.903Z,6.00
2023-02-27T01:37:58.571Z,6.77
2023-02-27T01:40:27.016Z,6.60
2023-02-27T01:42:55.421Z,6.10
2023-02-27T01:45:34.062Z,6.73
2023-02-27T01:48:18.401Z,6.70
2023-02-27T01:50:54.586Z,6.67
2023-02-27T01:53:26.043Z,6.83
2023-02-27T01:55:57.988Z,7.00
2023-02-27T01:58:27.096Z,6.57
2023-02-27T02:00:56.372Z,5.90
2023-02-27T02:03:34.330Z,6.30
2023-02-27T02:06:07.229Z,6.33
2023-02-27T02:08:41.022Z,5.93
2023-02-27T02:11:10.508Z,6.43
2023-02-27T02:13:41.584Z,6.77
2023-02-27T02:16:30.801Z,6.43
2023-02-27T02:19:18.178Z,6.27
2023-02-27T02:22:25.994Z,7.33
2023-02-27T02:25:35.245Z,6.37
2023-02-27T02:28:18.928Z,6.27
2023-02-27T02:31:16.016Z,6.77
2023-02-27T02:34:25.712Z,6.77
2023-02-27T02:37:49.090Z,7.00
2023-02-27T02:40:30.040Z,6.87
2023-02-27T02:43:09.553Z,6.50
2023-02-27T02:45:49.888Z,6.77
2023-02-27T02:48:27.760Z,6.27
2023-02-27T02:51:03.018Z,5.83
2023-02-27T02:53:40.556Z,6.73
2023-02-27T02:56:20.897Z,6.13
2023-02-27T02:58:59.760Z,7.10
2023-02-27T03:01:33.645Z,6.67
2023-02-27T03:04:09.751Z,6.90
2023-02-27T03:06:42.708Z,6.47
2023-02-27T03:09:17.614Z,8.87
2023-02-27T03:11:51.617Z,6.33
2023-02-27T03:14:29.486Z,6.77
2023-02-27T03:17:05.781Z,6.60
2023-02-27T03:19:42.614Z,6.17
2023-02-27T03:22:16.117Z,7.20
2023-02-27T03:24:49.102Z,5.83
2023-02-27T03:27:20.367Z,7.00
2023-02-27T03:29:56.202Z,6.50
2023-02-27T03:32:32.650Z,7.03
2023-02-27T03:35:01.523Z,6.63
2023-02-27T03:37:42.813Z,7.10
2023-02-27T03:40:25.840Z,6.30
2023-02-27T03:43:04.408Z,6.30
2023-02-27T03:45:41.227Z,6.30
2023-02-27T03:48:10.352Z,7.00
2023-02-27T03:50:38.940Z,6.40
2023-02-27T03:53:14.036Z,6.40
2023-02-27T03:55:45.584Z,6.80
2023-02-27T03:58:15.814Z,7.30
2023-02-27T04:00:44.514Z,6.77
2023-02-27T04:03:13.112Z,7.40
2023-02-27T04:05:41.593Z,6.37
2023-02-27T04:08:36.302Z,6.70
2023-02-27T04:11:30.831Z,7.57
2023-02-27T04:14:41.777Z,7.90
2023-02-27T04:17:24.411Z,7.90
2023-02-27T04:20:36.649Z,6.63
2023-02-27T04:23:08.844Z,7.83
2023-02-27T04:25:53.299Z,6.60
2023-02-27T04:28:29.951Z,6.80
2023-02-27T04:31:08.556Z,6.90
2023-02-27T04:33:46.584Z,6.80
2023-02-27T04:36:25.112Z,7.17
2023-02-27T04:39:02.118Z,6.53
2023-02-27T04:41:35.816Z,6.97
2023-02-27T04:44:08.604Z,6.23
2023-02-27T04:46:41.394Z,7.10
2023-02-27T04:49:14.553Z,6.40
2023-02-27T04:51:51.893Z,5.97
2023-02-27T04:54:27.794Z,6.23
2023-02-27T04:57:02.231Z,6.53
2023-02-27T04:59:36.618Z,6.50
2023-02-27T05:02:10.304Z,7.00
2023-02-27T05:04:41.575Z,6.70
2023-02-27T05:07:14.750Z,6.57
2023-02-27T05:09:50.996Z,6.63
2023-02-27T05:12:24.575Z,6.60
2023-02-27T05:14:59.722Z,5.90
2023-02-27T05:17:36.133Z,6.60
2023-02-27T05:20:07.182Z,6.50
2023-02-27T05:22:46.565Z,6.67
2023-02-27T05:25:23.228Z,6.77
2023-02-27T05:27:55.474Z,6.33
2023-02-27T05:30:27.876Z,6.40
2023-02-27T05:33:02.541Z,6.70
2023-02-27T05:35:35.934Z,6.93
2023-02-27T05:38:10.036Z,6.13
2023-02-27T05:40:45.628Z,6.23
2023-02-27T05:43:20.445Z,6.70
2023-02-27T05:45:53.598Z,6.70
2023-02-27T05:48:27.993Z,6.53
2023-02-27T05:50:57.451Z,5.77
2023-02-27T05:53:31.576Z,6.37
2023-02-27T05:56:03.125Z,6.57
2023-02-27T05:58:37.443Z,6.33
2023-02-27T06:01:08.740Z,6.87
2023-02-27T06:03:40.925Z,6.03
2023-02-27T06:06:13.735Z,7.00
2023-02-27T06:08:42.148Z,7.67
2023-02-27T06:11:10.532Z,7.73
2023-02-27T06:13:41.711Z,7.80
2023-02-27T06:16:13.876Z,8.10
2023-02-27T06:18:43.748Z,7.80
2023-02-27T06:21:13.036Z,8.67
2023-02-27T06:23:41.319Z,8.03
2023-02-27T06:26:13.791Z,8.13
2023-02-27T06:28:42.783Z,8.87
2023-02-27T06:31:11.151Z,8.03
2023-02-27T06:33:39.522Z,8.00
2023-02-27T06:36:09.618Z,8.50
2023-02-27T06:38:37.961Z,7.07
2023-02-27T06:41:07.449Z,7.67
2023-02-27T06:43:37.139Z,7.90
2023-02-27T06:46:06.003Z,7.97
2023-02-27T06:48:34.923Z,7.73
2023-02-27T06:51:03.527Z,8.57
2023-02-27T06:53:33.548Z,8.67
2023-02-27T06:56:01.824Z,8.57
2023-02-27T06:58:30.075Z,9.43
2023-02-27T07:01:00.731Z,8.40
2023-02-27T07:03:29.328Z,8.27
2023-02-27T07:05:58.510Z,8.53
2023-02-27T07:08:26.868Z,8.43
2023-02-27T07:10:56.699Z,8.70
2023-02-27T07:13:25.190Z,8.40
2023-02-27T07:15:54.176Z,11.13
2023-02-27T07:18:22.458Z,9.13
2023-02-27T07:20:52.435Z,7.87
2023-02-27T07:23:20.722Z,9.87
2023-02-27T07:25:49.697Z,8.13
2023-02-27T07:28:19.445Z,8.40
2023-02-27T07:30:48.085Z,8.80
2023-02-27T07:33:16.428Z,10.63
2023-02-27T07:35:46.346Z,9.93
2023-02-27T07:38:14.619Z,8.77
2023-02-27T07:40:43.126Z,8.73
2023-02-27T07:43:11.440Z,7.80
2023-02-27T07:45:41.582Z,7.70
2023-02-27T07:48:10.849Z,8.33
2023-02-27T07:50:39.533Z,8.60
2023-02-27T07:53:08.596Z,7.97
2023-02-27T07:55:37.140Z,8.93
2023-02-27T07:58:05.477Z,8.57
2023-02-27T08:00:33.950Z,7.93
2023-02-27T08:03:03.733Z,8.13
2023-02-27T08:05:32.251Z,8.50
2023-02-27T08:08:00.731Z,8.27
2023-02-27T08:10:29.855Z,7.60
2023-02-27T08:12:58.493Z,6.87
2023-02-27T08:15:26.811Z,7.00
2023-02-27T08:17:55.185Z,7.17
2023-02-27T08:20:25.335Z,11.00
2023-02-27T08:22:53.600Z,8.90
2023-02-27T08:25:21.919Z,6.87
2023-02-27T08:27:50.219Z,6.53
2023-02-27T08:30:19.080Z,6.03
2023-02-27T08:32:47.584Z,6.23
2023-02-27T08:35:16.095Z,5.27
2023-02-27T08:37:45.937Z,6.80
2023-02-27T08:40:14.738Z,5.17
2023-02-27T08:42:43.332Z,6.03
2023-02-27T08:45:12.854Z,5.80
2023-02-27T08:47:41.140Z,5.60
2023-02-27T08:50:12.426Z,5.93
2023-02-27T08:52:40.796Z,5.73
2023-02-27T08:55:12.056Z,4.80
2023-02-27T08:57:40.416Z,4.93
2023-02-27T09:00:10.920Z,4.87
2023-02-27T09:02:39.345Z,4.40
2023-02-27T09:05:08.680Z,4.70
2023-02-27T09:07:37.050Z,5.20
2023-02-27T09:10:07.232Z,5.43
2023-02-27T09:12:37.653Z,4.20
2023-02-27T09:15:07.279Z,4.23
2023-02-27T09:17:35.617Z,3.90
2023-02-27T09:20:05.157Z,3.70
2023-02-27T09:22:33.406Z,4.30
2023-02-27T09:25:01.732Z,4.00
2023-02-27T09:27:30.024Z,3.57
2023-02-27T09:30:00.043Z,3.60
2023-02-27T09:32:29.067Z,3.40
2023-02-27T09:34:58.399Z,2.43
2023-02-27T09:37:26.782Z,2.63
2023-02-27T09:39:55.184Z,3.27
2023-02-27T09:42:27.653Z,2.80
2023-02-27T09:45:04.743Z,2.20
2023-02-27T09:47:39.637Z,2.17
2023-02-27T09:50:12.616Z,2.40
2023-02-27T09:52:41.119Z,1.90
2023-02-27T09:55:18.440Z,2.17
2023-02-27T09:57:54.940Z,2.30
2023-02-27T10:00:45.475Z,2.07
2023-02-27T10:03:34.042Z,2.13
2023-02-27T10:06:24.429Z,1.77
2023-02-27T10:09:12.415Z,1.93
2023-02-27T10:11:55.221Z,1.93
2023-02-27T10:14:35.430Z,1.70
2023-02-27T10:17:15.636Z,1.40
2023-02-27T10:19:46.820Z,1.30
2023-02-27T10:22:23.110Z,1.30
2023-02-27T10:24:55.731Z,1.10
2023-02-27T10:27:24.902Z,1.20
2023-02-27T10:29:56.241Z,1.20
2023-02-27T10:32:32.128Z,1.10
2023-02-27T10:35:11.144Z,1.37
2023-02-27T10:37:49.577Z,1.20
2023-02-27T10:40:20.735Z,1.93
2023-02-27T10:42:49.386Z,1.30
2023-02-27T10:45:18.117Z,1.27
2023-02-27T10:47:47.893Z,1.00
2023-02-27T10:50:25.788Z,0.97
2023-02-27T10:52:56.483Z,1.10
2023-02-27T10:55:28.757Z,1.30
2023-02-27T10:57:58.929Z,0.93
2023-02-27T11:00:41.901Z,1.20
2023-02-27T11:03:22.052Z,1.20
2023-02-27T11:05:58.961Z,1.17
2023-02-27T11:08:29.920Z,0.90
2023-02-27T11:11:01.860Z,1.20
2023-02-27T11:13:32.845Z,0.90
2023-02-27T11:16:14.211Z,0.90
2023-02-27T11:18:45.789Z,1.00
2023-02-27T11:21:24.092Z,0.73
2023-02-27T11:23:57.481Z,1.00
2023-02-27T11:26:30.910Z,1.37
2023-02-27T11:29:18.413Z,0.93
2023-02-27T11:31:55.832Z,1.10
2023-02-27T11:34:30.386Z,1.50
2023-02-27T11:37:02.403Z,1.13
2023-02-27T11:39:35.613Z,1.13
2023-02-27T11:42:17.349Z,1.20
2023-02-27T11:44:59.835Z,1.10
2023-02-27T11:47:32.306Z,1.10
2023-02-27T11:50:31.357Z,0.90
2023-02-27T11:53:20.957Z,1.07
2023-02-27T11:55:50.405Z,0.80
2023-02-27T11:58:22.268Z,0.90
2023-02-27T12:00:55.752Z,1.10
2023-02-27T12:03:33.138Z,1.10
2023-02-27T12:06:11.567Z,1.10
2023-02-27T12:08:46.600Z,0.87
2023-02-27T12:11:23.118Z,0.70
2023-02-27T12:14:00.768Z,0.80
2023-02-27T12:16:37.618Z,1.20
2023-02-27T12:19:14.688Z,1.13
2023-02-27T12:21:49.767Z,0.80
2023-02-27T12:24:26.074Z,1.00
2023-02-27T12:27:02.658Z,0.80
2023-02-27T12:29:37.198Z,1.10
2023-02-27T12:32:15.875Z,0.63
2023-02-27T12:34:49.579Z,1.00
2023-02-27T12:37:24.928Z,1.00
2023-02-27T12:39:56.051Z,0.90
2023-02-27T12:42:44.643Z,0.90
2023-02-27T12:45:34.712Z,0.70
2023-02-27T12:48:20.794Z,0.80
2023-02-27T12:50:59.044Z,0.80
2023-02-27T12:53:57.310Z,0.77
2023-02-27T12:56:33.829Z,0.70
2023-02-27T12:59:15.388Z,0.70
2023-02-27T13:01:50.721Z,0.70
2023-02-27T13:04:27.115Z,0.90
2023-02-27T13:07:04.267Z,1.10
2023-02-27T13:09:42.472Z,0.70
2023-02-27T13:12:25.231Z,0.70
2023-02-27T13:15:00.559Z,0.60
2023-02-27T13:17:36.742Z,0.50
2023-02-27T13:20:30.766Z,0.67
2023-02-27T13:23:13.092Z,0.80
2023-02-27T13:25:50.971Z,0.97
2023-02-27T13:28:25.607Z,0.80
2023-02-27T13:31:03.141Z,0.67
2023-02-27T13:33:36.833Z,0.73
2023-02-27T13:36:13.248Z,0.60
2023-02-27T13:38:47.858Z,0.80
2023-02-27T13:41:40.695Z,0.60
2023-02-27T13:44:49.311Z,0.67
2023-02-27T13:47:50.938Z,0.70
2023-02-27T13:50:52.589Z,0.90
2023-02-27T13:53:25.280Z,0.50
2023-02-27T13:55:58.149Z,0.70
2023-02-27T13:58:28.304Z,0.70
2023-02-27T14:01:01.889Z,0.80
2023-02-27T14:03:32.486Z,0.60
2023-02-27T14:06:06.508Z,1.13
2023-02-27T14:08:49.013Z,0.90
2023-02-27T14:11:23.780Z,0.87
2023-02-27T14:14:06.908Z,0.93
2023-02-27T14:16:56.001Z,0.77
2023-02-27T14:19:59.410Z,0.70
2023-02-27T14:22:45.237Z,0.50
2023-02-27T14:25:22.345Z,0.60
2023-02-27T14:27:57.091Z,0.70
2023-02-27T14:30:39.399Z,0.67
2023-02-27T14:33:33.695Z,0.90
2023-02-27T14:36:20.711Z,0.73
2023-02-27T14:39:07.621Z,0.70
2023-02-27T14:41:51.601Z,0.77
2023-02-27T14:44:24.719Z,0.60
2023-02-27T14:46:57.898Z,0.60
2023-02-27T14:49:33.531Z,0.97
2023-02-27T14:52:20.769Z,0.90
2023-02-27T14:54:50.163Z,0.90
2023-02-27T14:57:21.260Z,0.57
2023-02-27T14:59:52.949Z,1.10
2023-02-27T15:02:27.101Z,0.80
2023-02-27T15:05:16.190Z,0.70
2023-02-27T15:07:52.800Z,0.87
2023-02-27T15:10:30.887Z,0.63
2023-02-27T15:13:00.582Z,0.60
2023-02-27T15:15:29.328Z,0.73
2023-02-27T15:18:01.038Z,0.60
2023-02-27T15:20:32.917Z,0.70
2023-02-27T15:23:04.323Z,0.60
2023-02-27T15:25:36.663Z,0.90
2023-02-27T15:28:08.265Z,0.67
2023-02-27T15:30:36.591Z,0.70
2023-02-27T15:33:12.145Z,1.00
2023-02-27T15:35:45.631Z,1.00
2023-02-27T15:38:27.602Z,0.90
2023-02-27T15:40:57.543Z,0.80
2023-02-27T15:43:27.915Z,0.57
2023-02-27T15:45:58.228Z,0.60
2023-02-27T15:48:29.476Z,0.60
2023-02-27T15:51:01.505Z,0.70
2023-02-27T15:53:34.137Z,0.70
2023-02-27T15:56:06.730Z,0.70
2023-02-27T15:58:37.608Z,0.80
2023-02-27T16:01:09.656Z,0.90
2023-02-27T16:03:45.008Z,0.80
2023-02-27T16:06:19.949Z,0.83
2023-02-27T16:08:54.584Z,0.67
2023-02-27T16:11:26.012Z,0.70
2023-02-27T16:13:55.511Z,0.90
2023-02-27T16:16:32.621Z,0.80
2023-02-27T16:19:15.976Z,0.77
2023-02-27T16:22:06.766Z,1.03
2023-02-27T16:24:35.517Z,1.03
2023-02-27T16:27:03.979Z,0.70
2023-02-27T16:29:37.537Z,0.90
2023-02-27T16:32:06.248Z,1.00
2023-02-27T16:34:45.515Z,0.70
2023-02-27T16:37:22.017Z,1.00
2023-02-27T16:39:54.307Z,1.40
2023-02-27T16:42:23.301Z,0.97
2023-02-27T16:44:52.349Z,1.00
2023-02-27T16:47:20.648Z,1.20
2023-02-27T16:49:50.364Z,0.93
2023-02-27T16:52:18.627Z,0.90
2023-02-27T16:54:47.057Z,0.80
2023-02-27T16:57:17.652Z,0.90
2023-02-27T16:59:45.951Z,1.30
2023-02-27T17:02:16.221Z,1.00
2023-02-27T17:04:47.899Z,0.97
2023-02-27T17:07:19.862Z,1.00
2023-02-27T17:09:49.570Z,1.47
2023-02-27T17:12:20.172Z,1.00
2023-02-27T17:14:48.507Z,1.63
2023-02-27T17:17:16.922Z,0.97
2023-02-27T17:19:45.563Z,0.90
2023-02-27T17:22:15.163Z,1.00
2023-02-27T17:24:44.915Z,1.10
2023-02-27T17:27:13.298Z,1.10
2023-02-27T17:29:41.684Z,1.07
2023-02-27T17:32:10.127Z,1.07
2023-02-27T17:34:38.476Z,1.10
2023-02-27T17:37:06.810Z,1.00
2023-02-27T17:39:35.145Z,1.30
2023-02-27T17:42:05.170Z,1.20
2023-02-27T17:44:33.483Z,1.13
2023-02-27T17:47:01.857Z,0.90
2023-02-27T17:49:30.125Z,1.30
2023-02-27T17:52:00.648Z,1.07
2023-02-27T17:54:29.204Z,1.30
2023-02-27T17:56:57.732Z,1.00
2023-02-27T17:59:27.551Z,1.30
2023-02-27T18:01:55.929Z,1.40
2023-02-27T18:04:24.550Z,1.53
2023-02-27T18:06:52.981Z,1.40
2023-02-27T18:09:21.944Z,1.40
2023-02-27T18:11:50.559Z,1.40
2023-02-27T18:14:18.892Z,1.37
2023-02-27T18:16:48.633Z,1.10
2023-02-27T18:19:17.336Z,1.40
2023-02-27T18:21:47.257Z,1.67
2023-02-27T18:24:17.315Z,1.70
2023-02-27T18:26:46.307Z,1.50
2023-02-27T18:29:16.217Z,1.40
2023-02-27T18:31:50.299Z,1.77
2023-02-27T18:34:18.663Z,1.77
2023-02-27T18:36:47.019Z,1.60
2023-02-27T18:39:16.553Z,1.40
2023-02-27T18:41:44.901Z,1.57
2023-02-27T18:44:13.991Z,1.53
2023-02-27T18:46:42.499Z,1.67
2023-02-27T18:49:12.406Z,1.77
2023-02-27T18:51:40.661Z,1.57
2023-02-27T18:54:09.046Z,1.47
2023-02-27T18:56:37.375Z,1.60
2023-02-27T18:59:06.837Z,1.87
2023-02-27T19:01:38.316Z,1.43
2023-02-27T19:04:09.560Z,2.70
2023-02-27T19:06:42.647Z,2.40
2023-02-27T19:09:13.469Z,2.07
2023-02-27T19:11:41.861Z,1.97
2023-02-27T19:14:14.150Z,4.23
2023-02-27T19:16:42.686Z,2.43
2023-02-27T19:19:11.925Z,2.73
2023-02-27T19:21:41.664Z,2.33
2023-02-27T19:24:11.561Z,3.30
2023-02-27T19:26:40.033Z,2.83
2023-02-27T19:29:09.010Z,2.93
2023-02-27T19:31:37.480Z,3.37
2023-02-27T19:34:06.064Z,8.40
2023-02-27T19:36:34.952Z,9.50
2023-02-27T19:39:05.519Z,6.37
2023-02-27T19:41:34.152Z,6.93
2023-02-27T19:44:02.566Z,5.57
2023-02-27T19:46:34.233Z,4.40
2023-02-27T19:49:05.796Z,3.70
2023-02-27T19:51:35.182Z,3.40
2023-02-27T19:54:05.499Z,2.70
2023-02-27T19:56:33.844Z,3.17
2023-02-27T19:59:02.864Z,2.70
2023-02-27T20:01:34.680Z,2.53
2023-02-27T20:04:04.052Z,2.40
2023-02-27T20:06:41.754Z,2.87
2023-02-27T20:09:14.518Z,2.90
2023-02-27T20:11:43.510Z,2.80
2023-02-27T20:14:16.443Z,2.80
2023-02-27T20:16:45.719Z,2.40
2023-02-27T20:19:16.801Z,2.33
2023-02-27T20:21:46.440Z,2.63
2023-02-27T20:24:18.858Z,2.60
2023-02-27T20:26:50.540Z,2.30
2023-02-27T20:29:21.891Z,2.53
2023-02-27T20:31:52.758Z,3.23
2023-02-27T20:34:26.267Z,3.20
2023-02-27T20:36:57.117Z,3.00
2023-02-27T20:39:28.111Z,3.77
2023-02-27T20:41:56.488Z,3.50
2023-02-27T20:44:24.861Z,3.73
2023-02-27T20:46:53.331Z,4.20
2023-02-27T20:49:22.770Z,4.47
2023-02-27T20:51:51.486Z,5.57
2023-02-27T20:54:21.111Z,5.20
2023-02-27T20:56:54.136Z,5.37
2023-02-27T20:59:25.210Z,5.87
2023-02-27T21:01:54.862Z,5.47
2023-02-27T21:04:25.854Z,6.00
2023-02-27T21:06:55.843Z,6.30
2023-02-27T21:09:24.211Z,7.00
2023-02-27T21:11:54.155Z,8.60
2023-02-27T21:14:23.433Z,9.47
2023-02-27T21:16:51.755Z,9.13
2023-02-27T21:19:20.854Z,9.93
2023-02-27T21:21:49.294Z,13.10
2023-02-27T21:24:17.900Z,12.57
2023-02-27T21:26:46.369Z,12.07
2023-02-27T21:29:19.730Z,11.80
2023-02-27T21:31:50.647Z,12.10
2023-02-27T21:34:22.766Z,15.40
2023-02-27T21:36:52.529Z,14.20
2023-02-27T21:39:23.409Z,22.97
2023-02-27T21:41:52.501Z,16.27
2023-02-27T21:44:25.475Z,13.53
2023-02-27T21:46:54.997Z,11.40
2023-02-27T21:49:28.244Z,9.57
2023-02-27T21:51:57.291Z,7.03
2023-02-27T21:54:25.681Z,6.10
2023-02-27T21:56:54.054Z,5.50
2023-02-27T21:59:25.918Z,11.13
2023-02-27T22:01:54.526Z,6.50
2023-02-27T22:04:23.162Z,5.37
2023-02-27T22:06:52.775Z,5.27
2023-02-27T22:09:21.765Z,4.97
2023-02-27T22:11:50.868Z,5.13
2023-02-27T22:14:19.470Z,5.70
2023-02-27T22:16:49.259Z,7.03
2023-02-27T22:19:21.956Z,7.53
2023-02-27T22:21:50.767Z,5.10
2023-02-27T22:24:19.253Z,5.53
2023-02-27T22:26:47.958Z,5.07
2023-02-27T22:29:17.391Z,5.60
2023-02-27T22:31:46.133Z,4.97
2023-02-27T22:34:19.156Z,4.30
2023-02-27T22:36:52.440Z,5.20
2023-02-27T22:39:21.526Z,4.63
2023-02-27T22:41:50.201Z,4.60
2023-02-27T22:44:20.416Z,4.40
2023-02-27T22:46:50.826Z,4.00
2023-02-27T22:49:23.343Z,4.47
2023-02-27T22:51:53.035Z,4.93
2023-02-27T22:54:23.875Z,4.33
2023-02-27T22:56:56.398Z,4.40
2023-02-27T22:59:26.539Z,4.50
2023-02-27T23:01:55.235Z,4.40
2023-02-27T23:04:25.229Z,4.10
2023-02-27T23:06:56.503Z,3.90
2023-02-27T23:09:27.470Z,4.00
2023-02-27T23:11:56.404Z,5.00
2023-02-27T23:14:25.074Z,3.83
2023-02-27T23:16:53.775Z,4.03
2023-02-27T23:19:24.302Z,3.77
2023-02-27T23:21:52.884Z,4.53
2023-02-27T23:24:21.967Z,4.10
2023-02-27T23:26:53.103Z,4.50
2023-02-27T23:29:21.864Z,4.23
2023-02-27T23:31:50.607Z,4.47
2023-02-27T23:34:19.103Z,4.43
2023-02-27T23:36:48.828Z,5.00
2023-02-27T23:39:17.233Z,5.77
2023-02-27T23:41:45.842Z,5.27
2023-02-27T23:44:14.232Z,4.93
2023-02-27T23:46:42.939Z,4.87
2023-02-27T23:49:18.083Z,5.70
2023-02-27T23:51:48.644Z,5.03
2023-02-27T23:54:17.046Z,4.90
2023-02-27T23:56:48.671Z,5.07
2023-02-27T23:59:17.296Z,4.47
